createdAt,value
2023-04-30T00:01:02.167Z,7.93
2023-04-30T00:03:29.315Z,7.89
2023-04-30T00:05:56.426Z,7.82
2023-04-30T00:08:23.784Z,7.72
2023-04-30T00:10:51.666Z,7.67
2023-04-30T00:13:19.009Z,7.47
2023-04-30T00:15:46.128Z,7.59
2023-04-30T00:18:13.245Z,7.69
2023-04-30T00:20:40.407Z,7.72
2023-04-30T00:23:07.428Z,7.63
2023-04-30T00:25:35.398Z,7.66
2023-04-30T00:28:02.461Z,7.44
2023-04-30T00:30:29.509Z,7.52
2023-04-30T00:32:56.569Z,7.39
2023-04-30T00:35:23.709Z,7.21
2023-04-30T00:37:50.726Z,6.92
2023-04-30T00:40:17.849Z,7.00
2023-04-30T00:42:45.088Z,7.08
2023-04-30T00:45:12.137Z,7.13
2023-04-30T00:47:40.512Z,7.19
2023-04-30T00:50:07.807Z,6.96
2023-04-30T00:52:34.944Z,6.96
2023-04-30T00:55:02.326Z,7.05
2023-04-30T00:57:29.354Z,6.95
2023-04-30T00:59:56.787Z,6.94
2023-04-30T01:02:24.534Z,6.78
2023-04-30T01:04:51.932Z,6.66
2023-04-30T01:07:18.999Z,6.93
2023-04-30T01:09:46.254Z,6.87
2023-04-30T01:12:21.683Z,6.79
2023-04-30T01:15:29.194Z,6.75
2023-04-30T01:18:02.501Z,6.68
2023-04-30T01:20:31.005Z,6.66
2023-04-30T01:23:14.366Z,6.54
2023-04-30T01:25:58.399Z,6.45
2023-04-30T01:28:26.088Z,6.45
2023-04-30T01:30:53.239Z,6.26
2023-04-30T01:33:20.651Z,6.38
2023-04-30T01:36:15.817Z,6.42
2023-04-30T01:39:08.478Z,6.32
2023-04-30T01:41:58.428Z,6.21
2023-04-30T01:44:53.492Z,6.31
2023-04-30T01:47:40.520Z,6.27
2023-04-30T01:50:13.345Z,6.25
2023-04-30T01:52:46.716Z,6.27
2023-04-30T01:55:43.000Z,6.34
2023-04-30T01:58:13.211Z,6.36
2023-04-30T02:00:40.922Z,6.39
2023-04-30T02:03:08.387Z,6.35
2023-04-30T02:05:35.478Z,6.34
2023-04-30T02:08:03.162Z,6.33
2023-04-30T02:10:30.644Z,6.35
2023-04-30T02:12:57.782Z,6.20
2023-04-30T02:15:24.805Z,6.41
2023-04-30T02:17:51.955Z,6.34
2023-04-30T02:20:19.110Z,6.58
2023-04-30T02:22:46.618Z,6.66
2023-04-30T02:25:14.123Z,6.28
2023-04-30T02:27:41.171Z,6.36
2023-04-30T02:30:08.530Z,6.48
2023-04-30T02:32:35.843Z,6.10
2023-04-30T02:35:03.062Z,6.17
2023-04-30T02:37:30.256Z,6.31
2023-04-30T02:39:57.631Z,6.15
2023-04-30T02:42:26.026Z,6.24
2023-04-30T02:44:53.048Z,6.03
2023-04-30T02:47:20.181Z,6.22
2023-04-30T02:49:47.292Z,6.17
2023-04-30T02:52:14.337Z,6.28
2023-04-30T02:54:41.432Z,6.32
2023-04-30T02:57:08.448Z,6.16
2023-04-30T02:59:35.509Z,6.07
2023-04-30T03:02:02.731Z,6.16
2023-04-30T03:04:30.658Z,6.16
2023-04-30T03:06:57.663Z,6.13
2023-04-30T03:09:24.713Z,6.03
2023-04-30T03:11:51.797Z,5.97
2023-04-30T03:14:18.897Z,6.11
2023-04-30T03:16:46.039Z,6.16
2023-04-30T03:19:13.181Z,6.07
2023-04-30T03:21:41.043Z,5.87
2023-04-30T03:24:08.255Z,6.13
2023-04-30T03:26:35.402Z,6.04
2023-04-30T03:29:02.529Z,5.98
2023-04-30T03:31:29.577Z,5.78
2023-04-30T03:33:56.616Z,5.97
2023-04-30T03:36:23.885Z,5.90
2023-04-30T03:38:51.134Z,5.90
2023-04-30T03:41:18.701Z,5.78
2023-04-30T03:43:46.238Z,5.85
2023-04-30T03:46:13.224Z,5.85
2023-04-30T03:48:40.336Z,5.70
2023-04-30T03:51:07.509Z,5.58
2023-04-30T03:53:34.499Z,5.73
2023-04-30T03:56:01.991Z,5.80
2023-04-30T03:58:29.907Z,5.68
2023-04-30T04:00:57.134Z,5.76
2023-04-30T04:03:24.413Z,5.53
2023-04-30T04:05:51.492Z,5.66
2023-04-30T04:08:18.557Z,5.87
2023-04-30T04:10:45.741Z,5.64
2023-04-30T04:13:12.873Z,5.61
2023-04-30T04:15:40.604Z,5.37
2023-04-30T04:18:08.580Z,5.12
2023-04-30T04:20:36.266Z,5.27
2023-04-30T04:23:03.571Z,5.25
2023-04-30T04:25:30.546Z,5.14
2023-04-30T04:27:57.659Z,5.16
2023-04-30T04:30:24.867Z,5.38
2023-04-30T04:32:53.893Z,5.29
2023-04-30T04:35:21.176Z,5.32
2023-04-30T04:37:48.463Z,5.45
2023-04-30T04:40:15.563Z,5.35
2023-04-30T04:42:42.567Z,5.41
2023-04-30T04:45:09.886Z,5.23
2023-04-30T04:47:38.051Z,5.14
2023-04-30T04:50:05.625Z,5.36
2023-04-30T04:52:32.773Z,5.33
2023-04-30T04:54:59.793Z,5.16
2023-04-30T04:57:27.035Z,5.19
2023-04-30T04:59:54.413Z,5.15
2023-04-30T05:02:23.360Z,5.14
2023-04-30T05:04:51.431Z,5.00
2023-04-30T05:07:19.652Z,5.28
2023-04-30T05:09:46.989Z,5.28
2023-04-30T05:12:14.773Z,5.44
2023-04-30T05:14:42.911Z,5.48
2023-04-30T05:17:10.116Z,5.49
2023-04-30T05:19:37.138Z,5.66
2023-04-30T05:22:04.784Z,5.43
2023-04-30T05:24:31.821Z,5.29
2023-04-30T05:26:58.896Z,5.39
2023-04-30T05:29:25.888Z,5.56
2023-04-30T05:31:53.020Z,5.28
2023-04-30T05:34:20.299Z,5.32
2023-04-30T05:36:47.388Z,5.62
2023-04-30T05:39:14.377Z,5.52
2023-04-30T05:41:41.365Z,5.23
2023-04-30T05:44:08.406Z,5.37
2023-04-30T05:46:35.624Z,5.65
2023-04-30T05:49:02.680Z,5.78
2023-04-30T05:51:29.732Z,5.81
2023-04-30T05:53:57.534Z,6.01
2023-04-30T05:56:25.190Z,5.95
2023-04-30T05:58:52.560Z,6.13
2023-04-30T06:01:20.979Z,5.96
2023-04-30T06:03:48.017Z,6.28
2023-04-30T06:06:15.229Z,6.34
2023-04-30T06:08:45.086Z,6.74
2023-04-30T06:11:13.029Z,6.44
2023-04-30T06:13:40.563Z,6.48
2023-04-30T06:16:08.338Z,6.45
2023-04-30T06:18:35.685Z,6.43
2023-04-30T06:21:02.824Z,6.36
2023-04-30T06:23:29.998Z,6.45
2023-04-30T06:25:57.062Z,6.27
2023-04-30T06:28:24.216Z,6.47
2023-04-30T06:30:52.028Z,6.48
2023-04-30T06:33:19.101Z,6.91
2023-04-30T06:35:46.467Z,6.92
2023-04-30T06:38:14.224Z,7.11
2023-04-30T06:40:41.273Z,7.10
2023-04-30T06:43:08.282Z,7.01
2023-04-30T06:45:35.583Z,7.34
2023-04-30T06:48:02.825Z,7.17
2023-04-30T06:50:29.978Z,7.37
2023-04-30T06:52:56.993Z,7.38
2023-04-30T06:55:24.773Z,7.44
2023-04-30T06:57:52.061Z,7.83
2023-04-30T07:00:19.149Z,7.89
2023-04-30T07:02:47.954Z,8.06
2023-04-30T07:05:16.092Z,8.03
2023-04-30T07:07:43.217Z,8.24
2023-04-30T07:10:10.531Z,8.54
2023-04-30T07:12:37.570Z,8.79
2023-04-30T07:15:04.875Z,8.62
2023-04-30T07:17:31.970Z,8.73
2023-04-30T07:19:59.061Z,8.89
2023-04-30T07:22:26.131Z,9.03
2023-04-30T07:24:53.144Z,9.19
2023-04-30T07:27:20.330Z,9.21
2023-04-30T07:29:47.361Z,9.57
2023-04-30T07:32:15.160Z,9.75
2023-04-30T07:34:42.669Z,9.84
2023-04-30T07:37:09.889Z,10.01
2023-04-30T07:39:37.325Z,10.00
2023-04-30T07:42:04.730Z,10.44
2023-04-30T07:44:31.982Z,10.57
2023-04-30T07:46:58.976Z,10.75
2023-04-30T07:49:26.186Z,10.94
2023-04-30T07:51:53.275Z,11.20
2023-04-30T07:54:20.310Z,11.14
2023-04-30T07:56:48.837Z,11.47
2023-04-30T07:59:16.025Z,11.51
2023-04-30T08:01:43.208Z,11.55
2023-04-30T08:04:10.681Z,11.73
2023-04-30T08:06:37.859Z,12.03
2023-04-30T08:09:04.905Z,12.24
2023-04-30T08:11:31.909Z,12.17
2023-04-30T08:13:58.901Z,12.21
2023-04-30T08:16:25.959Z,12.44
2023-04-30T08:18:54.382Z,12.29
2023-04-30T08:21:21.639Z,12.47
2023-04-30T08:23:48.659Z,12.56
2023-04-30T08:26:15.688Z,12.77
2023-04-30T08:28:42.725Z,12.69
2023-04-30T08:31:09.890Z,13.05
2023-04-30T08:33:36.942Z,13.26
2023-04-30T08:36:04.253Z,13.44
2023-04-30T08:38:31.302Z,13.40
2023-04-30T08:41:11.323Z,13.52
2023-04-30T08:43:39.193Z,13.74
2023-04-30T08:46:07.219Z,13.58
2023-04-30T08:48:34.705Z,13.85
2023-04-30T08:51:03.157Z,13.73
2023-04-30T08:53:31.612Z,14.09
2023-04-30T08:55:59.020Z,14.22
2023-04-30T08:58:26.055Z,13.93
2023-04-30T09:00:53.069Z,13.87
2023-04-30T09:03:22.115Z,13.95
2023-04-30T09:05:49.212Z,13.94
2023-04-30T09:08:46.853Z,14.12
2023-04-30T09:11:27.524Z,14.30
2023-04-30T09:13:59.701Z,14.70
2023-04-30T09:16:31.293Z,14.86
2023-04-30T09:18:59.576Z,14.88
2023-04-30T09:21:34.712Z,15.11
2023-04-30T09:24:03.867Z,15.17
2023-04-30T09:26:36.552Z,15.01
2023-04-30T09:29:07.911Z,14.75
2023-04-30T09:31:36.349Z,14.59
2023-04-30T09:34:04.741Z,14.76
2023-04-30T09:36:32.403Z,14.97
2023-04-30T09:39:09.888Z,15.02
2023-04-30T09:41:37.966Z,15.17
2023-04-30T09:44:05.407Z,15.30
2023-04-30T09:46:34.717Z,15.76
2023-04-30T09:49:03.807Z,15.92
2023-04-30T09:51:31.752Z,15.96
2023-04-30T09:54:02.757Z,16.05
2023-04-30T09:56:35.364Z,16.27
2023-04-30T09:59:04.418Z,16.01
2023-04-30T10:01:33.342Z,16.08
2023-04-30T10:04:01.218Z,15.65
2023-04-30T10:06:29.756Z,15.82
2023-04-30T10:08:57.948Z,15.59
2023-04-30T10:11:28.302Z,15.58
2023-04-30T10:14:02.729Z,15.55
2023-04-30T10:17:07.352Z,15.56
2023-04-30T10:19:39.141Z,15.30
2023-04-30T10:22:06.312Z,15.46
2023-04-30T10:24:34.574Z,15.12
2023-04-30T10:27:01.692Z,15.32
2023-04-30T10:29:28.780Z,15.58
2023-04-30T10:31:56.961Z,15.49
2023-04-30T10:34:53.275Z,15.61
2023-04-30T10:37:45.182Z,15.44
2023-04-30T10:40:12.632Z,15.39
2023-04-30T10:42:45.864Z,15.66
2023-04-30T10:45:12.929Z,15.51
2023-04-30T10:47:43.106Z,15.83
2023-04-30T10:50:10.763Z,15.87
2023-04-30T10:52:39.150Z,16.33
2023-04-30T10:55:09.276Z,16.42
2023-04-30T10:57:43.741Z,16.39
2023-04-30T11:00:10.905Z,16.23
2023-04-30T11:02:47.162Z,16.60
2023-04-30T11:05:15.572Z,16.81
2023-04-30T11:07:56.839Z,17.08
2023-04-30T11:10:27.333Z,17.23
2023-04-30T11:12:55.672Z,17.32
2023-04-30T11:15:27.365Z,17.62
2023-04-30T11:17:59.486Z,18.10
2023-04-30T11:20:26.970Z,17.96
2023-04-30T11:23:19.751Z,17.89
2023-04-30T11:25:59.114Z,17.70
2023-04-30T11:28:27.412Z,17.62
2023-04-30T11:30:59.637Z,17.38
2023-04-30T11:33:29.131Z,17.45
2023-04-30T11:35:58.188Z,17.52
2023-04-30T11:38:36.355Z,17.77
2023-04-30T11:41:04.935Z,17.77
2023-04-30T11:43:34.326Z,17.96
2023-04-30T11:46:08.245Z,17.66
2023-04-30T11:48:37.515Z,17.97
2023-04-30T11:51:25.133Z,17.99
2023-04-30T11:53:53.425Z,17.60
2023-04-30T11:56:25.493Z,17.75
2023-04-30T11:58:53.841Z,17.90
2023-04-30T12:01:21.536Z,17.79
2023-04-30T12:03:50.843Z,17.51
2023-04-30T12:06:26.170Z,17.93
2023-04-30T12:08:54.745Z,17.90
2023-04-30T12:11:29.762Z,18.11
2023-04-30T12:14:05.412Z,18.29
2023-04-30T12:16:53.198Z,18.49
2023-04-30T12:19:25.035Z,18.57
2023-04-30T12:21:55.011Z,17.87
2023-04-30T12:24:23.529Z,17.76
2023-04-30T12:26:53.732Z,17.66
2023-04-30T12:29:23.057Z,17.67
2023-04-30T12:31:52.343Z,17.77
2023-04-30T12:34:19.493Z,18.12
2023-04-30T12:36:46.562Z,18.36
2023-04-30T12:39:17.999Z,18.73
2023-04-30T12:41:49.569Z,19.10
2023-04-30T12:44:20.868Z,18.82
2023-04-30T12:46:49.262Z,19.07
2023-04-30T12:49:29.932Z,19.22
2023-04-30T12:52:01.859Z,19.15
2023-04-30T12:54:30.721Z,19.18
2023-04-30T12:57:07.445Z,19.07
2023-04-30T12:59:51.690Z,19.08
2023-04-30T13:02:19.317Z,18.94
2023-04-30T13:04:46.400Z,18.67
2023-04-30T13:07:13.484Z,18.42
2023-04-30T13:09:40.736Z,18.49
2023-04-30T13:12:07.793Z,18.71
2023-04-30T13:14:35.200Z,19.01
2023-04-30T13:17:05.611Z,18.93
2023-04-30T13:19:33.997Z,18.72
2023-04-30T13:22:01.731Z,18.45
2023-04-30T13:24:28.891Z,18.38
2023-04-30T13:26:57.711Z,18.60
2023-04-30T13:29:25.314Z,18.90
2023-04-30T13:31:52.437Z,19.11
2023-04-30T13:34:19.571Z,19.37
2023-04-30T13:36:46.807Z,19.45
2023-04-30T13:39:14.008Z,19.45
2023-04-30T13:41:41.003Z,19.67
2023-04-30T13:44:09.413Z,19.37
2023-04-30T13:46:36.450Z,19.08
2023-04-30T13:49:03.551Z,18.98
2023-04-30T13:51:30.739Z,18.83
2023-04-30T13:53:57.992Z,18.92
2023-04-30T13:56:25.533Z,19.06
2023-04-30T13:58:52.650Z,19.27
2023-04-30T14:01:19.747Z,20.06
2023-04-30T14:03:47.201Z,20.06
2023-04-30T14:06:14.556Z,19.51
2023-04-30T14:08:41.680Z,18.79
2023-04-30T14:11:08.688Z,18.31
2023-04-30T14:13:35.783Z,18.20
2023-04-30T14:16:02.930Z,17.98
2023-04-30T14:18:29.989Z,17.93
2023-04-30T14:20:57.030Z,17.89
2023-04-30T14:23:24.036Z,17.97
2023-04-30T14:25:51.164Z,18.04
2023-04-30T14:28:18.203Z,18.22
2023-04-30T14:30:45.385Z,18.24
2023-04-30T14:33:12.699Z,18.41
2023-04-30T14:35:41.463Z,18.83
2023-04-30T14:38:08.499Z,19.16
2023-04-30T14:40:35.562Z,19.18
2023-04-30T14:43:02.537Z,19.34
2023-04-30T14:45:29.879Z,19.15
2023-04-30T14:47:56.959Z,18.92
2023-04-30T14:50:24.187Z,18.80
2023-04-30T14:52:51.525Z,18.83
2023-04-30T14:55:18.630Z,18.73
2023-04-30T14:57:45.639Z,18.57
2023-04-30T15:00:13.383Z,18.86
2023-04-30T15:02:40.641Z,19.08
2023-04-30T15:05:08.611Z,19.38
2023-04-30T15:07:36.740Z,19.53
2023-04-30T15:10:04.354Z,20.13
2023-04-30T15:12:31.490Z,20.62
2023-04-30T15:14:58.496Z,20.84
2023-04-30T15:17:25.699Z,21.30
2023-04-30T15:19:53.931Z,20.58
2023-04-30T15:22:22.447Z,20.13
2023-04-30T15:24:50.053Z,20.01
2023-04-30T15:27:17.142Z,19.36
2023-04-30T15:29:46.193Z,20.14
2023-04-30T15:32:13.790Z,21.23
2023-04-30T15:34:40.870Z,21.95
2023-04-30T15:37:07.938Z,23.20
2023-04-30T15:39:35.376Z,23.03
2023-04-30T15:42:02.362Z,23.05
2023-04-30T15:44:29.420Z,23.45
2023-04-30T15:46:56.701Z,22.69
2023-04-30T15:49:23.867Z,22.32
2023-04-30T15:51:51.262Z,21.56
2023-04-30T15:54:18.512Z,20.28
2023-04-30T15:56:45.559Z,19.91
2023-04-30T15:59:17.422Z,21.08
2023-04-30T16:01:45.528Z,22.55
2023-04-30T16:04:12.856Z,23.68
2023-04-30T16:06:40.077Z,23.15
2023-04-30T16:09:08.686Z,23.18
2023-04-30T16:11:36.124Z,22.75
2023-04-30T16:14:03.187Z,22.88
2023-04-30T16:16:30.350Z,23.32
2023-04-30T16:18:57.566Z,24.47
2023-04-30T16:21:24.599Z,24.82
2023-04-30T16:23:51.603Z,23.93
2023-04-30T16:26:18.649Z,24.01
2023-04-30T16:28:47.140Z,23.70
2023-04-30T16:31:15.577Z,24.40
2023-04-30T16:33:43.878Z,25.24
2023-04-30T16:36:11.058Z,25.66
2023-04-30T16:38:38.193Z,24.99
2023-04-30T16:41:05.540Z,24.65
2023-04-30T16:43:32.552Z,24.15
2023-04-30T16:45:59.632Z,23.52
2023-04-30T16:48:26.689Z,23.15
2023-04-30T16:50:53.671Z,22.87
2023-04-30T16:53:21.670Z,21.02
2023-04-30T16:55:48.699Z,19.78
2023-04-30T16:58:16.583Z,19.12
2023-04-30T17:00:43.583Z,18.41
2023-04-30T17:03:10.745Z,18.18
2023-04-30T17:05:37.874Z,18.29
2023-04-30T17:08:05.430Z,18.15
2023-04-30T17:10:32.566Z,18.04
2023-04-30T17:13:02.017Z,17.99
2023-04-30T17:15:29.263Z,18.10
2023-04-30T17:17:57.704Z,17.85
2023-04-30T17:20:24.840Z,18.16
2023-04-30T17:22:53.262Z,18.83
2023-04-30T17:25:20.485Z,20.13
2023-04-30T17:27:47.888Z,20.82
2023-04-30T17:30:15.302Z,21.09
2023-04-30T17:32:43.495Z,20.20
2023-04-30T17:35:10.849Z,19.22
2023-04-30T17:37:37.840Z,19.06
2023-04-30T17:40:05.741Z,18.10
2023-04-30T17:42:35.463Z,17.96
2023-04-30T17:45:02.526Z,17.25
2023-04-30T17:47:29.546Z,17.12
2023-04-30T17:49:57.258Z,16.81
2023-04-30T17:52:24.583Z,16.96
2023-04-30T17:54:51.848Z,16.84
2023-04-30T17:57:18.853Z,16.67
2023-04-30T17:59:45.910Z,16.60
2023-04-30T18:02:13.124Z,16.37
2023-04-30T18:04:40.208Z,16.43
2023-04-30T18:07:08.190Z,16.24
2023-04-30T18:09:35.896Z,16.15
2023-04-30T18:12:03.744Z,16.01
2023-04-30T18:14:30.857Z,15.83
2023-04-30T18:16:58.030Z,15.79
2023-04-30T18:19:25.311Z,15.79
2023-04-30T18:21:56.683Z,15.47
2023-04-30T18:24:28.275Z,15.59
2023-04-30T18:26:55.958Z,15.52
2023-04-30T18:29:23.492Z,15.45
2023-04-30T18:31:50.632Z,15.32
2023-04-30T18:34:17.673Z,15.19
2023-04-30T18:36:44.875Z,15.06
2023-04-30T18:39:12.366Z,14.91
2023-04-30T18:41:39.390Z,14.94
2023-04-30T18:44:09.476Z,14.77
2023-04-30T18:46:36.681Z,14.76
2023-04-30T18:49:05.355Z,14.59
2023-04-30T18:51:32.374Z,14.54
2023-04-30T18:53:59.917Z,14.39
2023-04-30T18:56:26.996Z,14.39
2023-04-30T18:58:54.055Z,14.13
2023-04-30T19:01:21.624Z,14.20
2023-04-30T19:03:48.749Z,14.09
2023-04-30T19:06:15.853Z,14.08
2023-04-30T19:08:45.600Z,13.99
2023-04-30T19:11:13.864Z,13.90
2023-04-30T19:13:40.978Z,13.78
2023-04-30T19:16:08.229Z,13.63
2023-04-30T19:18:36.351Z,13.55
2023-04-30T19:21:05.267Z,13.43
2023-04-30T19:23:32.358Z,13.32
2023-04-30T19:25:59.758Z,12.93
2023-04-30T19:28:27.220Z,13.03
2023-04-30T19:30:54.986Z,12.84
2023-04-30T19:33:23.218Z,12.64
2023-04-30T19:35:54.783Z,12.74
2023-04-30T19:38:21.994Z,12.68
2023-04-30T19:40:52.121Z,12.51
2023-04-30T19:43:20.026Z,12.56
2023-04-30T19:45:51.188Z,12.52
2023-04-30T19:48:18.396Z,12.41
2023-04-30T19:50:46.677Z,12.37
2023-04-30T19:53:14.973Z,12.35
2023-04-30T19:55:42.663Z,12.09
2023-04-30T19:58:10.067Z,12.25
2023-04-30T20:00:38.586Z,12.23
2023-04-30T20:03:05.829Z,12.16
2023-04-30T20:05:35.254Z,12.10
2023-04-30T20:08:03.457Z,12.04
2023-04-30T20:10:31.214Z,12.00
2023-04-30T20:12:58.252Z,11.95
2023-04-30T20:15:25.999Z,11.87
2023-04-30T20:17:53.273Z,11.68
2023-04-30T20:20:23.730Z,11.69
2023-04-30T20:22:52.631Z,11.74
2023-04-30T20:25:20.931Z,11.67
2023-04-30T20:27:48.211Z,11.51
2023-04-30T20:30:15.302Z,11.52
2023-04-30T20:32:42.357Z,11.48
2023-04-30T20:35:09.625Z,11.47
2023-04-30T20:37:37.578Z,11.40
2023-04-30T20:40:07.957Z,11.34
2023-04-30T20:42:35.624Z,11.28
2023-04-30T20:45:05.754Z,11.18
2023-04-30T20:47:33.204Z,11.11
2023-04-30T20:50:00.408Z,11.05
2023-04-30T20:52:27.712Z,11.05
2023-04-30T20:54:54.856Z,10.93
2023-04-30T20:57:21.920Z,10.86
2023-04-30T20:59:49.030Z,10.68
2023-04-30T21:02:16.318Z,10.73
2023-04-30T21:04:43.399Z,10.62
2023-04-30T21:07:10.382Z,10.78
2023-04-30T21:09:38.313Z,10.58
2023-04-30T21:12:06.159Z,10.50
2023-04-30T21:14:34.051Z,10.66
2023-04-30T21:17:01.307Z,10.47
2023-04-30T21:19:28.559Z,10.53
2023-04-30T21:21:55.675Z,10.52
2023-04-30T21:24:22.670Z,10.49
2023-04-30T21:26:49.641Z,10.37
2023-04-30T21:29:16.721Z,10.36
2023-04-30T21:31:44.208Z,10.16
2023-04-30T21:34:11.248Z,10.27
2023-04-30T21:36:38.230Z,10.27
2023-04-30T21:39:05.569Z,10.06
2023-04-30T21:41:32.871Z,10.11
2023-04-30T21:44:00.151Z,10.11
2023-04-30T21:46:27.382Z,10.06
2023-04-30T21:48:54.521Z,10.01
2023-04-30T21:51:22.188Z,10.00
2023-04-30T21:53:49.623Z,9.97
2023-04-30T21:56:16.743Z,9.93
2023-04-30T21:58:43.741Z,9.93
2023-04-30T22:01:12.264Z,9.86
2023-04-30T22:03:41.957Z,9.85
2023-04-30T22:06:09.068Z,9.85
2023-04-30T22:08:36.258Z,9.84
2023-04-30T22:11:04.554Z,9.75
2023-04-30T22:13:31.561Z,9.63
2023-04-30T22:15:58.723Z,9.62
2023-04-30T22:18:25.875Z,9.51
2023-04-30T22:20:52.953Z,9.39
2023-04-30T22:23:21.202Z,9.11
2023-04-30T22:25:48.667Z,9.49
2023-04-30T22:28:16.912Z,9.37
2023-04-30T22:30:45.085Z,9.37
2023-04-30T22:33:12.668Z,9.31
2023-04-30T22:35:39.926Z,9.10
2023-04-30T22:38:07.506Z,9.22
2023-04-30T22:40:38.391Z,9.15
2023-04-30T22:43:05.946Z,9.24
2023-04-30T22:45:36.919Z,9.23
2023-04-30T22:48:04.556Z,9.20
2023-04-30T22:50:31.908Z,9.10
2023-04-30T22:52:59.633Z,9.17
2023-04-30T22:55:27.209Z,9.01
2023-04-30T22:57:54.293Z,9.18
2023-04-30T23:00:21.281Z,9.14
2023-04-30T23:02:48.722Z,9.18
2023-04-30T23:05:15.940Z,9.12
2023-04-30T23:07:43.083Z,9.13
2023-04-30T23:10:10.715Z,9.14
2023-04-30T23:12:37.734Z,9.14
2023-04-30T23:15:05.193Z,8.75
2023-04-30T23:17:32.359Z,9.08
2023-04-30T23:19:59.410Z,9.03
2023-04-30T23:22:26.696Z,8.96
2023-04-30T23:24:55.377Z,8.98
2023-04-30T23:27:23.567Z,9.15
2023-04-30T23:29:50.713Z,9.04
2023-04-30T23:32:18.198Z,9.06
2023-04-30T23:34:45.294Z,9.02
2023-04-30T23:37:12.291Z,9.04
2023-04-30T23:39:39.373Z,8.89
2023-04-30T23:42:07.814Z,8.96
2023-04-30T23:44:34.866Z,9.12
2023-04-30T23:47:01.914Z,9.11
2023-04-30T23:49:28.969Z,9.12
2023-04-30T23:51:55.958Z,9.03
2023-04-30T23:54:23.231Z,9.04
2023-04-30T23:56:50.335Z,8.98
2023-04-30T23:59:17.317Z,9.09
